sensor_id;sensor_type;location;lat;lon;timestamp;pressure;altitude;pressure_sealevel;temperature;humidity
18275;BME280;19470;49.322;7.218;2023-09-19T00:01:32;98258.81;;;20.42;100.00
18275;BME280;19470;49.322;7.218;2023-09-19T00:03:59;98269.03;;;20.23;100.00
18275;BME280;19470;49.322;7.218;2023-09-19T00:06:28;98274.94;;;20.33;100.00
18275;BME280;19470;49.322;7.218;2023-09-19T00:08:57;98274.78;;;20.38;100.00
18275;BME280;19470;49.322;7.218;2023-09-19T00:11:24;98278.84;;;20.10;100.00
18275;BME280;19470;49.322;7.218;2023-09-19T00:13:52;98280.88;;;20.13;100.00
18275;BME280;19470;49.322;7.218;2023-09-19T00:16:18;98267.59;;;20.08;100.00
18275;BME280;19470;49.322;7.218;2023-09-19T00:18:45;98277.69;;;19.94;100.00
18275;BME280;19470;49.322;7.218;2023-09-19T00:21:13;98280.91;;;20.30;100.00
18275;BME280;19470;49.322;7.218;2023-09-19T00:23:40;98277.78;;;20.28;100.00
18275;BME280;19470;49.322;7.218;2023-09-19T00:26:07;98282.56;;;20.49;100.00
18275;BME280;19470;49.322;7.218;2023-09-19T00:28:33;98289.34;;;20.63;100.00
18275;BME280;19470;49.322;7.218;2023-09-19T00:31:00;98296.06;;;20.09;100.00
18275;BME280;19470;49.322;7.218;2023-09-19T00:33:27;98286.84;;;19.92;100.00
18275;BME280;19470;49.322;7.218;2023-09-19T00:35:56;98284.41;;;20.39;100.00
18275;BME280;19470;49.322;7.218;2023-09-19T00:38:24;98284.13;;;20.67;100.00
18275;BME280;19470;49.322;7.218;2023-09-19T00:40:53;98283.47;;;20.70;100.00
18275;BME280;19470;49.322;7.218;2023-09-19T00:43:20;98277.31;;;20.78;100.00
18275;BME280;19470;49.322;7.218;2023-09-19T00:45:49;98289.75;;;20.22;100.00
18275;BME280;19470;49.322;7.218;2023-09-19T00:48:16;98291.84;;;20.42;100.00
18275;BME280;19470;49.322;7.218;2023-09-19T00:50:44;98290.56;;;20.40;100.00
18275;BME280;19470;49.322;7.218;2023-09-19T00:53:14;98300.16;;;19.98;100.00
18275;BME280;19470;49.322;7.218;2023-09-19T00:55:45;98303.69;;;20.41;100.00
18275;BME280;19470;49.322;7.218;2023-09-19T00:58:12;98310.97;;;20.24;100.00
18275;BME280;19470;49.322;7.218;2023-09-19T01:00:40;98301.16;;;20.19;100.00
18275;BME280;19470;49.322;7.218;2023-09-19T01:03:10;98309.72;;;19.73;100.00
18275;BME280;19470;49.322;7.218;2023-09-19T01:05:38;98302.91;;;20.24;100.00
18275;BME280;19470;49.322;7.218;2023-09-19T01:08:05;98313.94;;;20.05;100.00
18275;BME280;19470;49.322;7.218;2023-09-19T01:10:33;98310.16;;;20.14;100.00
18275;BME280;19470;49.322;7.218;2023-09-19T01:13:04;98314.03;;;19.82;100.00
18275;BME280;19470;49.322;7.218;2023-09-19T01:15:40;98322.03;;;19.74;100.00
18275;BME280;19470;49.322;7.218;2023-09-19T01:18:16;98323.91;;;20.13;100.00
18275;BME280;19470;49.322;7.218;2023-09-19T01:20:54;98323.28;;;20.16;100.00
18275;BME280;19470;49.322;7.218;2023-09-19T01:23:31;98322.84;;;19.74;100.00
18275;BME280;19470;49.322;7.218;2023-09-19T01:26:27;98332.59;;;19.70;100.00
18275;BME280;19470;49.322;7.218;2023-09-19T01:29:15;98329.84;;;19.92;100.00
18275;BME280;19470;49.322;7.218;2023-09-19T01:31:47;98336.09;;;20.10;100.00
18275;BME280;19470;49.322;7.218;2023-09-19T01:34:15;98343.63;;;19.60;100.00
18275;BME280;19470;49.322;7.218;2023-09-19T01:36:43;98344.50;;;19.78;100.00
18275;BME280;19470;49.322;7.218;2023-09-19T01:39:11;98347.75;;;19.97;100.00
18275;BME280;19470;49.322;7.218;2023-09-19T01:41:47;98340.06;;;19.73;100.00
18275;BME280;19470;49.322;7.218;2023-09-19T01:44:24;98345.38;;;19.96;100.00
18275;BME280;19470;49.322;7.218;2023-09-19T01:46:58;98356.91;;;19.65;100.00
18275;BME280;19470;49.322;7.218;2023-09-19T01:49:37;98357.34;;;19.58;100.00
18275;BME280;19470;49.322;7.218;2023-09-19T01:52:12;98352.25;;;20.19;100.00
18275;BME280;19470;49.322;7.218;2023-09-19T01:54:46;98352.53;;;19.69;100.00
18275;BME280;19470;49.322;7.218;2023-09-19T01:57:20;98357.78;;;19.52;100.00
18275;BME280;19470;49.322;7.218;2023-09-19T01:59:52;98372.94;;;19.79;100.00
18275;BME280;19470;49.322;7.218;2023-09-19T02:02:23;98357.19;;;19.95;100.00
18275;BME280;19470;49.322;7.218;2023-09-19T02:04:51;98369.56;;;19.64;100.00
18275;BME280;19470;49.322;7.218;2023-09-19T02:07:18;98366.16;;;19.28;100.00
18275;BME280;19470;49.322;7.218;2023-09-19T02:09:44;98373.09;;;19.74;100.00
18275;BME280;19470;49.322;7.218;2023-09-19T02:12:13;98368.97;;;19.45;100.00
18275;BME280;19470;49.322;7.218;2023-09-19T02:14:40;98367.53;;;19.48;100.00
18275;BME280;19470;49.322;7.218;2023-09-19T02:17:07;98366.09;;;19.41;100.00
18275;BME280;19470;49.322;7.218;2023-09-19T02:19:38;98369.06;;;19.94;100.00
18275;BME280;19470;49.322;7.218;2023-09-19T02:22:06;98377.63;;;19.96;100.00
18275;BME280;19470;49.322;7.218;2023-09-19T02:24:36;98371.00;;;19.62;100.00
18275;BME280;19470;49.322;7.218;2023-09-19T02:27:03;98388.88;;;19.75;100.00
18275;BME280;19470;49.322;7.218;2023-09-19T02:29:32;98382.56;;;20.11;100.00
18275;BME280;19470;49.322;7.218;2023-09-19T02:31:59;98388.69;;;20.03;100.00
18275;BME280;19470;49.322;7.218;2023-09-19T02:34:27;98392.06;;;20.57;100.00
18275;BME280;19470;49.322;7.218;2023-09-19T02:36:55;98386.56;;;20.22;100.00
18275;BME280;19470;49.322;7.218;2023-09-19T02:39:22;98382.81;;;20.40;100.00
18275;BME280;19470;49.322;7.218;2023-09-19T02:41:49;98387.00;;;19.76;100.00
18275;BME280;19470;49.322;7.218;2023-09-19T02:44:16;98387.69;;;19.90;100.00
18275;BME280;19470;49.322;7.218;2023-09-19T02:46:45;98388.44;;;20.22;100.00
18275;BME280;19470;49.322;7.218;2023-09-19T02:49:12;98382.13;;;19.55;100.00
18275;BME280;19470;49.322;7.218;2023-09-19T02:51:38;98392.41;;;19.84;100.00
18275;BME280;19470;49.322;7.218;2023-09-19T02:54:07;98398.75;;;19.57;100.00
18275;BME280;19470;49.322;7.218;2023-09-19T02:56:34;98389.03;;;19.48;100.00
18275;BME280;19470;49.322;7.218;2023-09-19T02:59:06;98401.97;;;19.46;100.00
18275;BME280;19470;49.322;7.218;2023-09-19T03:01:35;98400.41;;;19.45;100.00
18275;BME280;19470;49.322;7.218;2023-09-19T03:04:04;98393.06;;;19.36;100.00
18275;BME280;19470;49.322;7.218;2023-09-19T03:06:31;98398.19;;;19.24;100.00
18275;BME280;19470;49.322;7.218;2023-09-19T03:08:58;98397.97;;;19.34;100.00
18275;BME280;19470;49.322;7.218;2023-09-19T03:11:26;98405.09;;;19.61;100.00
18275;BME280;19470;49.322;7.218;2023-09-19T03:13:53;98409.31;;;18.95;100.00
18275;BME280;19470;49.322;7.218;2023-09-19T03:16:20;98413.75;;;19.13;100.00
18275;BME280;19470;49.322;7.218;2023-09-19T03:18:48;98420.03;;;19.54;100.00
18275;BME280;19470;49.322;7.218;2023-09-19T03:21:15;98401.06;;;19.50;100.00
18275;BME280;19470;49.322;7.218;2023-09-19T03:23:42;98402.81;;;19.55;100.00
18275;BME280;19470;49.322;7.218;2023-09-19T03:26:10;98410.09;;;19.54;100.00
18275;BME280;19470;49.322;7.218;2023-09-19T03:28:39;98405.38;;;19.37;100.00
18275;BME280;19470;49.322;7.218;2023-09-19T03:31:06;98410.81;;;19.24;100.00
18275;BME280;19470;49.322;7.218;2023-09-19T03:33:33;98415.16;;;19.33;100.00
18275;BME280;19470;49.322;7.218;2023-09-19T03:36:00;98408.34;;;18.91;100.00
18275;BME280;19470;49.322;7.218;2023-09-19T03:38:30;98417.34;;;19.09;100.00
18275;BME280;19470;49.322;7.218;2023-09-19T03:40:56;98417.72;;;18.80;100.00
18275;BME280;19470;49.322;7.218;2023-09-19T03:43:40;98419.50;;;18.57;100.00
18275;BME280;19470;49.322;7.218;2023-09-19T03:46:06;98419.97;;;18.86;100.00
18275;BME280;19470;49.322;7.218;2023-09-19T03:48:33;98422.81;;;19.04;100.00
18275;BME280;19470;49.322;7.218;2023-09-19T03:50:59;98417.03;;;18.74;100.00
18275;BME280;19470;49.322;7.218;2023-09-19T03:53:26;98421.94;;;18.95;100.00
18275;BME280;19470;49.322;7.218;2023-09-19T03:55:52;98423.44;;;19.23;100.00
18275;BME280;19470;49.322;7.218;2023-09-19T03:58:19;98426.72;;;18.98;100.00
18275;BME280;19470;49.322;7.218;2023-09-19T04:00:47;98423.88;;;18.80;100.00
18275;BME280;19470;49.322;7.218;2023-09-19T04:03:15;98427.88;;;18.69;100.00
18275;BME280;19470;49.322;7.218;2023-09-19T04:05:45;98420.88;;;18.82;100.00
18275;BME280;19470;49.322;7.218;2023-09-19T04:08:12;98426.94;;;18.87;100.00
18275;BME280;19470;49.322;7.218;2023-09-19T04:10:41;98436.16;;;18.95;100.00
18275;BME280;19470;49.322;7.218;2023-09-19T04:13:08;98435.44;;;19.39;100.00
18275;BME280;19470;49.322;7.218;2023-09-19T04:15:34;98435.13;;;18.82;100.00
18275;BME280;19470;49.322;7.218;2023-09-19T04:18:03;98432.81;;;19.26;100.00
18275;BME280;19470;49.322;7.218;2023-09-19T04:20:29;98427.22;;;19.22;100.00
18275;BME280;19470;49.322;7.218;2023-09-19T04:22:57;98427.41;;;19.03;100.00
18275;BME280;19470;49.322;7.218;2023-09-19T04:25:25;98430.03;;;19.17;100.00
18275;BME280;19470;49.322;7.218;2023-09-19T04:27:52;98430.13;;;19.26;100.00
18275;BME280;19470;49.322;7.218;2023-09-19T04:30:18;98424.00;;;19.11;100.00
18275;BME280;19470;49.322;7.218;2023-09-19T04:32:46;98431.25;;;19.11;100.00
18275;BME280;19470;49.322;7.218;2023-09-19T04:35:17;98432.34;;;19.10;100.00
18275;BME280;19470;49.322;7.218;2023-09-19T04:37:43;98434.75;;;19.11;100.00
18275;BME280;19470;49.322;7.218;2023-09-19T04:40:10;98436.97;;;18.82;100.00
18275;BME280;19470;49.322;7.218;2023-09-19T04:42:39;98432.22;;;18.93;100.00
18275;BME280;19470;49.322;7.218;2023-09-19T04:45:07;98428.06;;;18.59;100.00
18275;BME280;19470;49.322;7.218;2023-09-19T04:47:34;98429.25;;;18.80;100.00
18275;BME280;19470;49.322;7.218;2023-09-19T04:50:01;98431.91;;;18.67;100.00
18275;BME280;19470;49.322;7.218;2023-09-19T04:52:31;98431.38;;;19.06;100.00
18275;BME280;19470;49.322;7.218;2023-09-19T04:54:58;98444.75;;;18.56;100.00
18275;BME280;19470;49.322;7.218;2023-09-19T04:57:25;98445.13;;;18.63;100.00
18275;BME280;19470;49.322;7.218;2023-09-19T04:59:51;98449.66;;;19.04;100.00
18275;BME280;19470;49.322;7.218;2023-09-19T05:02:19;98452.13;;;18.78;100.00
18275;BME280;19470;49.322;7.218;2023-09-19T05:04:45;98446.72;;;18.92;100.00
18275;BME280;19470;49.322;7.218;2023-09-19T05:07:12;98449.50;;;18.86;100.00
18275;BME280;19470;49.322;7.218;2023-09-19T05:09:40;98454.22;;;19.03;100.00
18275;BME280;19470;49.322;7.218;2023-09-19T05:12:07;98456.66;;;18.63;100.00
18275;BME280;19470;49.322;7.218;2023-09-19T05:14:35;98459.84;;;18.79;100.00
18275;BME280;19470;49.322;7.218;2023-09-19T05:17:02;98461.22;;;18.63;100.00
18275;BME280;19470;49.322;7.218;2023-09-19T05:19:29;98466.59;;;18.35;100.00
18275;BME280;19470;49.322;7.218;2023-09-19T05:21:55;98473.66;;;18.31;100.00
18275;BME280;19470;49.322;7.218;2023-09-19T05:24:22;98469.47;;;18.53;100.00
18275;BME280;19470;49.322;7.218;2023-09-19T05:26:53;98479.13;;;18.54;100.00
18275;BME280;19470;49.322;7.218;2023-09-19T05:29:20;98480.28;;;18.48;100.00
18275;BME280;19470;49.322;7.218;2023-09-19T05:31:47;98489.63;;;18.23;100.00
18275;BME280;19470;49.322;7.218;2023-09-19T05:34:14;98489.94;;;18.35;100.00
18275;BME280;19470;49.322;7.218;2023-09-19T05:36:41;98493.69;;;18.48;100.00
18275;BME280;19470;49.322;7.218;2023-09-19T05:39:08;98492.44;;;18.45;100.00
18275;BME280;19470;49.322;7.218;2023-09-19T05:41:35;98485.06;;;18.51;100.00
18275;BME280;19470;49.322;7.218;2023-09-19T05:44:06;98490.63;;;18.41;100.00
18275;BME280;19470;49.322;7.218;2023-09-19T05:46:33;98488.00;;;18.08;100.00
18275;BME280;19470;49.322;7.218;2023-09-19T05:49:00;98480.31;;;18.75;100.00
18275;BME280;19470;49.322;7.218;2023-09-19T05:51:26;98485.47;;;18.30;100.00
18275;BME280;19470;49.322;7.218;2023-09-19T05:53:53;98490.66;;;18.68;100.00
18275;BME280;19470;49.322;7.218;2023-09-19T05:56:20;98486.34;;;18.12;100.00
18275;BME280;19470;49.322;7.218;2023-09-19T05:58:47;98486.44;;;18.48;100.00
18275;BME280;19470;49.322;7.218;2023-09-19T06:01:16;98500.91;;;18.06;100.00
18275;BME280;19470;49.322;7.218;2023-09-19T06:03:42;98507.41;;;18.32;100.00
18275;BME280;19470;49.322;7.218;2023-09-19T06:06:09;98502.69;;;18.71;100.00
18275;BME280;19470;49.322;7.218;2023-09-19T06:08:35;98501.47;;;18.49;100.00
18275;BME280;19470;49.322;7.218;2023-09-19T06:11:02;98515.78;;;18.72;100.00
18275;BME280;19470;49.322;7.218;2023-09-19T06:13:30;98516.03;;;18.29;100.00
18275;BME280;19470;49.322;7.218;2023-09-19T06:15:58;98515.47;;;19.15;100.00
18275;BME280;19470;49.322;7.218;2023-09-19T06:18:29;98518.44;;;19.00;100.00
18275;BME280;19470;49.322;7.218;2023-09-19T06:20:59;98523.66;;;18.82;100.00
18275;BME280;19470;49.322;7.218;2023-09-19T06:23:25;98520.84;;;19.01;100.00
18275;BME280;19470;49.322;7.218;2023-09-19T06:25:54;98528.38;;;19.13;100.00
18275;BME280;19470;49.322;7.218;2023-09-19T06:28:20;98529.69;;;18.74;100.00
18275;BME280;19470;49.322;7.218;2023-09-19T06:30:50;98521.19;;;19.58;100.00
18275;BME280;19470;49.322;7.218;2023-09-19T06:33:16;98528.06;;;18.46;100.00
18275;BME280;19470;49.322;7.218;2023-09-19T06:35:47;98524.59;;;19.14;100.00
18275;BME280;19470;49.322;7.218;2023-09-19T06:38:13;98527.72;;;18.94;100.00
18275;BME280;19470;49.322;7.218;2023-09-19T06:40:41;98541.09;;;19.07;100.00
18275;BME280;19470;49.322;7.218;2023-09-19T06:43:09;98544.47;;;18.58;100.00
18275;BME280;19470;49.322;7.218;2023-09-19T06:45:36;98542.84;;;18.29;100.00
18275;BME280;19470;49.322;7.218;2023-09-19T06:48:03;98546.22;;;18.21;100.00
18275;BME280;19470;49.322;7.218;2023-09-19T06:50:30;98549.56;;;19.01;100.00
18275;BME280;19470;49.322;7.218;2023-09-19T06:52:59;98549.06;;;18.99;100.00
18275;BME280;19470;49.322;7.218;2023-09-19T06:55:27;98561.91;;;19.02;100.00
18275;BME280;19470;49.322;7.218;2023-09-19T06:57:56;98563.91;;;18.36;100.00
18275;BME280;19470;49.322;7.218;2023-09-19T07:00:24;98566.56;;;18.96;100.00
18275;BME280;19470;49.322;7.218;2023-09-19T07:02:58;98575.50;;;19.05;100.00
18275;BME280;19470;49.322;7.218;2023-09-19T07:05:27;98576.25;;;19.33;100.00
18275;BME280;19470;49.322;7.218;2023-09-19T07:07:54;98579.44;;;19.35;100.00
18275;BME280;19470;49.322;7.218;2023-09-19T07:10:22;98569.09;;;19.79;100.00
18275;BME280;19470;49.322;7.218;2023-09-19T07:12:55;98582.19;;;19.72;98.48
18275;BME280;19470;49.322;7.218;2023-09-19T07:15:22;98596.06;;;19.10;100.00
18275;BME280;19470;49.322;7.218;2023-09-19T07:17:50;98593.44;;;19.96;99.25
18275;BME280;19470;49.322;7.218;2023-09-19T07:20:18;98600.69;;;19.59;99.21
18275;BME280;19470;49.322;7.218;2023-09-19T07:22:44;98605.50;;;19.21;100.00
18275;BME280;19470;49.322;7.218;2023-09-19T07:25:11;98609.13;;;20.03;96.34
18275;BME280;19470;49.322;7.218;2023-09-19T07:27:40;98614.13;;;19.46;97.06
18275;BME280;19470;49.322;7.218;2023-09-19T07:30:07;98624.63;;;19.06;100.00
18275;BME280;19470;49.322;7.218;2023-09-19T07:32:34;98627.38;;;19.14;100.00
18275;BME280;19470;49.322;7.218;2023-09-19T07:35:01;98628.38;;;19.32;98.47
18275;BME280;19470;49.322;7.218;2023-09-19T07:37:29;98628.56;;;19.22;96.98
18275;BME280;19470;49.322;7.218;2023-09-19T07:39:56;98623.63;;;19.79;95.63
18275;BME280;19470;49.322;7.218;2023-09-19T07:42:23;98623.22;;;19.22;98.80
18275;BME280;19470;49.322;7.218;2023-09-19T07:44:50;98632.34;;;20.66;90.37
18275;BME280;19470;49.322;7.218;2023-09-19T07:47:19;98637.78;;;20.30;90.34
18275;BME280;19470;49.322;7.218;2023-09-19T07:49:46;98635.97;;;21.01;83.79
18275;BME280;19470;49.322;7.218;2023-09-19T07:52:13;98638.13;;;20.37;89.82
18275;BME280;19470;49.322;7.218;2023-09-19T07:54:40;98643.69;;;20.18;87.51
18275;BME280;19470;49.322;7.218;2023-09-19T07:57:09;98635.44;;;19.92;89.19
18275;BME280;19470;49.322;7.218;2023-09-19T07:59:36;98638.94;;;20.15;88.37
18275;BME280;19470;49.322;7.218;2023-09-19T08:02:05;98646.91;;;19.84;89.25
18275;BME280;19470;49.322;7.218;2023-09-19T08:04:33;98656.44;;;20.71;85.55
18275;BME280;19470;49.322;7.218;2023-09-19T08:07:00;98649.63;;;21.62;80.30
18275;BME280;19470;49.322;7.218;2023-09-19T08:09:29;98654.16;;;20.96;81.83
18275;BME280;19470;49.322;7.218;2023-09-19T08:11:58;98658.38;;;21.76;81.66
18275;BME280;19470;49.322;7.218;2023-09-19T08:16:56;98657.34;;;20.66;81.04
18275;BME280;19470;49.322;7.218;2023-09-19T08:19:25;98658.66;;;22.70;72.51
18275;BME280;19470;49.322;7.218;2023-09-19T08:21:55;98659.66;;;21.79;74.11
18275;BME280;19470;49.322;7.218;2023-09-19T08:24:24;98660.31;;;21.27;76.08
18275;BME280;19470;49.322;7.218;2023-09-19T08:26:50;98653.47;;;21.87;73.97
18275;BME280;19470;49.322;7.218;2023-09-19T08:29:17;98655.84;;;21.97;73.22
18275;BME280;19470;49.322;7.218;2023-09-19T08:31:43;98661.69;;;21.16;76.46
18275;BME280;19470;49.322;7.218;2023-09-19T08:34:10;98660.78;;;21.29;75.09
18275;BME280;19470;49.322;7.218;2023-09-19T08:36:38;98667.22;;;21.68;72.25
18275;BME280;19470;49.322;7.218;2023-09-19T08:39:06;98647.56;;;21.10;73.50
18275;BME280;19470;49.322;7.218;2023-09-19T08:41:34;98662.91;;;21.01;73.64
18275;BME280;19470;49.322;7.218;2023-09-19T08:44:00;98658.97;;;20.76;74.99
18275;BME280;19470;49.322;7.218;2023-09-19T08:46:30;98666.47;;;21.85;69.30
18275;BME280;19470;49.322;7.218;2023-09-19T08:49:02;98660.53;;;21.48;70.58
18275;BME280;19470;49.322;7.218;2023-09-19T08:51:33;98666.13;;;21.78;67.48
18275;BME280;19470;49.322;7.218;2023-09-19T08:54:07;98671.94;;;21.36;68.02
18275;BME280;19470;49.322;7.218;2023-09-19T08:56:35;98667.53;;;21.58;67.33
18275;BME280;19470;49.322;7.218;2023-09-19T08:59:05;98667.88;;;22.60;65.08
18275;BME280;19470;49.322;7.218;2023-09-19T09:01:33;98668.38;;;21.84;65.41
18275;BME280;19470;49.322;7.218;2023-09-19T09:04:01;98669.81;;;22.08;65.79
18275;BME280;19470;49.322;7.218;2023-09-19T09:06:29;98681.28;;;22.22;64.83
18275;BME280;19470;49.322;7.218;2023-09-19T09:08:58;98664.34;;;22.77;63.83
18275;BME280;19470;49.322;7.218;2023-09-19T09:11:26;98671.13;;;23.01;63.63
18275;BME280;19470;49.322;7.218;2023-09-19T09:13:53;98681.09;;;22.27;65.45
18275;BME280;19470;49.322;7.218;2023-09-19T09:16:20;98676.63;;;21.97;66.90
18275;BME280;19470;49.322;7.218;2023-09-19T09:18:46;98692.69;;;22.19;65.68
18275;BME280;19470;49.322;7.218;2023-09-19T09:21:17;98675.97;;;21.82;65.14
18275;BME280;19470;49.322;7.218;2023-09-19T09:23:47;98676.16;;;22.29;65.01
18275;BME280;19470;49.322;7.218;2023-09-19T09:26:13;98680.44;;;23.20;61.13
18275;BME280;19470;49.322;7.218;2023-09-19T09:28:46;98676.16;;;22.55;63.39
18275;BME280;19470;49.322;7.218;2023-09-19T09:31:24;98678.63;;;21.48;65.50
18275;BME280;19470;49.322;7.218;2023-09-19T09:33:54;98670.25;;;22.62;63.30
18275;BME280;19470;49.322;7.218;2023-09-19T09:36:33;98671.59;;;23.62;59.78
18275;BME280;19470;49.322;7.218;2023-09-19T09:39:02;98662.69;;;24.12;58.26
18275;BME280;19470;49.322;7.218;2023-09-19T09:41:41;98658.53;;;24.68;56.18
18275;BME280;19470;49.322;7.218;2023-09-19T09:44:14;98659.81;;;23.96;57.83
18275;BME280;19470;49.322;7.218;2023-09-19T09:46:43;98666.84;;;25.33;55.31
18275;BME280;19470;49.322;7.218;2023-09-19T09:49:47;98659.06;;;25.07;55.87
18275;BME280;19470;49.322;7.218;2023-09-19T09:52:19;98671.88;;;23.98;56.94
18275;BME280;19470;49.322;7.218;2023-09-19T09:54:58;98673.16;;;23.42;56.70
18275;BME280;19470;49.322;7.218;2023-09-19T09:57:26;98673.03;;;23.38;57.00
18275;BME280;19470;49.322;7.218;2023-09-19T09:59:55;98667.38;;;25.02;54.20
18275;BME280;19470;49.322;7.218;2023-09-19T10:02:26;98662.31;;;24.01;54.89
18275;BME280;19470;49.322;7.218;2023-09-19T10:04:55;98648.97;;;24.17;54.44
18275;BME280;19470;49.322;7.218;2023-09-19T10:07:39;98661.59;;;23.33;57.64
18275;BME280;19470;49.322;7.218;2023-09-19T10:10:07;98660.66;;;22.82;58.94
18275;BME280;19470;49.322;7.218;2023-09-19T10:12:46;98651.84;;;24.33;55.71
18275;BME280;19470;49.322;7.218;2023-09-19T10:15:16;98667.19;;;22.89;59.77
18275;BME280;19470;49.322;7.218;2023-09-19T10:17:45;98657.97;;;22.90;59.96
18275;BME280;19470;49.322;7.218;2023-09-19T10:20:13;98664.22;;;23.80;58.33
18275;BME280;19470;49.322;7.218;2023-09-19T10:23:01;98650.59;;;25.09;53.64
18275;BME280;19470;49.322;7.218;2023-09-19T10:25:36;98649.13;;;24.00;57.11
18275;BME280;19470;49.322;7.218;2023-09-19T10:28:05;98649.59;;;24.68;56.29
18275;BME280;19470;49.322;7.218;2023-09-19T10:30:37;98642.19;;;23.39;58.34
18275;BME280;19470;49.322;7.218;2023-09-19T10:33:11;98645.88;;;23.85;57.71
18275;BME280;19470;49.322;7.218;2023-09-19T10:35:39;98639.00;;;24.63;55.22
18275;BME280;19470;49.322;7.218;2023-09-19T10:38:10;98622.53;;;24.02;56.32
18275;BME280;19470;49.322;7.218;2023-09-19T10:40:38;98627.88;;;24.10;56.06
18275;BME280;19470;49.322;7.218;2023-09-19T10:43:12;98635.38;;;24.59;54.55
18275;BME280;19470;49.322;7.218;2023-09-19T10:45:42;98642.56;;;24.55;53.05
18275;BME280;19470;49.322;7.218;2023-09-19T10:48:10;98629.22;;;25.44;52.29
18275;BME280;19470;49.322;7.218;2023-09-19T10:50:44;98626.63;;;27.04;48.53
18275;BME280;19470;49.322;7.218;2023-09-19T10:53:12;98621.44;;;28.20;45.40
18275;BME280;19470;49.322;7.218;2023-09-19T10:55:40;98626.28;;;26.30;48.17
18275;BME280;19470;49.322;7.218;2023-09-19T10:58:25;98627.72;;;24.73;52.51
18275;BME280;19470;49.322;7.218;2023-09-19T11:00:56;98633.97;;;27.50;46.68
18275;BME280;19470;49.322;7.218;2023-09-19T11:03:26;98612.34;;;27.22;46.60
18275;BME280;19470;49.322;7.218;2023-09-19T11:06:06;98614.63;;;26.29;49.91
18275;BME280;19470;49.322;7.218;2023-09-19T11:08:51;98605.66;;;27.36;46.42
18275;BME280;19470;49.322;7.218;2023-09-19T11:11:41;98618.84;;;25.98;49.24
18275;BME280;19470;49.322;7.218;2023-09-19T11:14:30;98607.53;;;25.96;49.61
18275;BME280;19470;49.322;7.218;2023-09-19T11:20:35;98602.28;;;26.60;47.96
18275;BME280;19470;49.322;7.218;2023-09-19T11:23:23;98591.00;;;27.40;48.57
18275;BME280;19470;49.322;7.218;2023-09-19T11:25:51;98597.19;;;27.06;46.45
18275;BME280;19470;49.322;7.218;2023-09-19T11:28:32;98596.16;;;25.91;50.75
18275;BME280;19470;49.322;7.218;2023-09-19T11:40:37;98568.19;;;28.91;43.58
18275;BME280;19470;49.322;7.218;2023-09-19T11:43:28;98556.59;;;28.48;44.49
18275;BME280;19470;49.322;7.218;2023-09-19T11:46:08;98563.63;;;28.49;44.84
18275;BME280;19470;49.322;7.218;2023-09-19T11:48:47;98558.34;;;28.18;44.98
18275;BME280;19470;49.322;7.218;2023-09-19T11:51:16;98547.81;;;28.59;43.83
18275;BME280;19470;49.322;7.218;2023-09-19T11:53:49;98557.97;;;27.58;47.38
18275;BME280;19470;49.322;7.218;2023-09-19T11:56:19;98577.13;;;26.19;47.44
18275;BME280;19470;49.322;7.218;2023-09-19T11:58:49;98567.66;;;27.20;45.98
18275;BME280;19470;49.322;7.218;2023-09-19T12:01:21;98586.94;;;25.80;49.45
18275;BME280;19470;49.322;7.218;2023-09-19T12:03:53;98583.03;;;24.79;53.19
18275;BME280;19470;49.322;7.218;2023-09-19T12:06:26;98574.72;;;24.84;53.59
18275;BME280;19470;49.322;7.218;2023-09-19T12:08:53;98580.47;;;26.28;50.76
18275;BME280;19470;49.322;7.218;2023-09-19T12:11:27;98578.72;;;26.64;48.82
18275;BME280;19470;49.322;7.218;2023-09-19T12:13:53;98580.59;;;24.98;51.65
18275;BME280;19470;49.322;7.218;2023-09-19T12:16:24;98580.97;;;24.39;53.08
18275;BME280;19470;49.322;7.218;2023-09-19T12:18:51;98580.78;;;23.69;56.57
18275;BME280;19470;49.322;7.218;2023-09-19T12:21:23;98574.72;;;23.73;57.10
18275;BME280;19470;49.322;7.218;2023-09-19T12:23:58;98566.88;;;24.13;56.74
18275;BME280;19470;49.322;7.218;2023-09-19T12:26:27;98576.88;;;25.68;53.47
18275;BME280;19470;49.322;7.218;2023-09-19T12:28:54;98558.22;;;26.07;51.35
18275;BME280;19470;49.322;7.218;2023-09-19T12:31:22;98558.09;;;26.31;50.31
18275;BME280;19470;49.322;7.218;2023-09-19T12:33:53;98569.06;;;24.32;54.48
18275;BME280;19470;49.322;7.218;2023-09-19T12:36:20;98570.50;;;23.84;56.12
18275;BME280;19470;49.322;7.218;2023-09-19T12:38:50;98565.63;;;23.77;54.88
18275;BME280;19470;49.322;7.218;2023-09-19T12:41:18;98559.81;;;25.27;51.99
18275;BME280;19470;49.322;7.218;2023-09-19T12:43:47;98560.91;;;25.38;51.69
18275;BME280;19470;49.322;7.218;2023-09-19T12:46:14;98559.47;;;24.92;52.09
18275;BME280;19470;49.322;7.218;2023-09-19T12:48:44;98555.72;;;25.21;52.73
18275;BME280;19470;49.322;7.218;2023-09-19T12:51:13;98551.31;;;24.55;53.75
18275;BME280;19470;49.322;7.218;2023-09-19T12:53:42;98581.53;;;24.12;53.92
18275;BME280;19470;49.322;7.218;2023-09-19T12:56:11;98550.34;;;24.27;54.67
18275;BME280;19470;49.322;7.218;2023-09-19T12:58:50;98543.47;;;25.52;51.53
18275;BME280;19470;49.322;7.218;2023-09-19T13:01:19;98542.31;;;25.65;50.87
18275;BME280;19470;49.322;7.218;2023-09-19T13:04:12;98541.53;;;24.75;53.33
18275;BME280;19470;49.322;7.218;2023-09-19T13:06:40;98532.94;;;24.85;52.73
18275;BME280;19470;49.322;7.218;2023-09-19T13:09:09;98537.44;;;25.98;50.49
18275;BME280;19470;49.322;7.218;2023-09-19T13:11:36;98538.72;;;24.71;53.38
18275;BME280;19470;49.322;7.218;2023-09-19T13:14:21;98529.78;;;25.08;53.04
18275;BME280;19470;49.322;7.218;2023-09-19T13:16:56;98529.84;;;25.36;53.52
18275;BME280;19470;49.322;7.218;2023-09-19T13:19:40;98534.53;;;25.11;54.28
18275;BME280;19470;49.322;7.218;2023-09-19T13:22:36;98541.28;;;25.29;54.25
18275;BME280;19470;49.322;7.218;2023-09-19T13:25:05;98533.38;;;24.51;55.57